Time,TemperatureF,DewpointF,PressureIn,WindDirection,WindDirectionDegrees,WindSpeedMPH,WindSpeedGustMPH,Humidity,HourlyPrecipIn,Conditions,Clouds,dailyrainin,SoftwareType,DateUTC
2015-02-27 00:13:00,73.0,66.0,29.96,NE,38,4.0,-999.0,78,-99.99,,,-99.99,,2015-02-27 05:13:00,
2015-02-27 00:23:00,73.0,66.0,29.95,NE,34,3.0,-999.0,78,-99.99,,,-99.99,,2015-02-27 05:23:00,
2015-02-27 00:43:00,74.0,66.0,29.95,NE,37,4.0,-999.0,76,-99.99,,,-99.99,,2015-02-27 05:43:00,
2015-02-27 00:53:00,74.0,66.0,29.95,NE,37,3.0,-999.0,76,-99.99,,,-99.99,,2015-02-27 05:53:00,
2015-02-27 01:12:00,73.0,66.0,29.95,NE,38,3.0,-999.0,78,-99.99,,,-99.99,,2015-02-27 06:12:00,
2015-02-27 01:22:00,72.0,65.0,29.94,NE,36,3.0,-999.0,78,-99.99,,,-99.99,,2015-02-27 06:22:00,
2015-02-27 01:42:00,72.0,65.0,29.94,NNE,32,4.0,-999.0,78,-99.99,,,-99.99,,2015-02-27 06:42:00,
2015-02-27 01:53:00,72.0,64.0,29.94,NNE,33,4.0,-999.0,77,-99.99,,,-99.99,,2015-02-27 06:53:00,
2015-02-27 02:12:00,72.0,65.0,29.93,NE,34,3.0,-999.0,78,-99.99,,,-99.99,,2015-02-27 07:12:00,
2015-02-27 02:23:00,72.0,65.0,29.93,NE,35,3.0,-999.0,78,-99.99,,,-99.99,,2015-02-27 07:23:00,
2015-02-27 02:42:00,71.0,64.0,29.93,NE,38,3.0,-999.0,78,-99.99,,,-99.99,,2015-02-27 07:42:00,
2015-02-27 02:52:00,71.0,64.0,29.93,NE,39,3.0,-999.0,79,-99.99,,,-99.99,,2015-02-27 07:52:00,
2015-02-27 03:22:00,71.0,63.0,29.92,NNE,33,2.0,-999.0,77,-99.99,,,-99.99,,2015-02-27 08:22:00,
2015-02-27 03:42:00,71.0,63.0,29.92,NNE,33,3.0,-999.0,77,-99.99,,,-99.99,,2015-02-27 08:42:00,
2015-02-27 03:52:00,71.0,63.0,29.92,NNE,33,3.0,-999.0,77,-99.99,,,-99.99,,2015-02-27 08:52:00,
2015-02-27 04:22:00,71.0,63.0,29.92,NE,35,4.0,-999.0,77,-99.99,,,-99.99,,2015-02-27 09:22:00,
2015-02-27 04:43:00,71.0,63.0,29.92,NE,35,3.0,-999.0,77,-99.99,,,-99.99,,2015-02-27 09:43:00,
2015-02-27 04:53:00,71.0,63.0,29.92,NE,35,3.0,-999.0,77,-99.99,,,-99.99,,2015-02-27 09:53:00,
2015-02-27 05:13:00,71.0,64.0,29.93,NE,36,3.0,-999.0,78,-99.99,,,-99.99,,2015-02-27 10:13:00,
2015-02-27 05:23:00,70.0,63.0,29.93,NE,36,2.0,-999.0,79,-99.99,,,-99.99,,2015-02-27 10:23:00,
2015-02-27 05:43:00,71.0,64.0,29.93,NE,36,3.0,-999.0,78,-99.99,,,-99.99,,2015-02-27 10:43:00,
2015-02-27 05:53:00,71.0,64.0,29.95,NE,37,4.0,-999.0,79,-99.99,,,-99.99,,2015-02-27 10:53:00,
2015-02-27 06:12:00,71.0,64.0,29.95,NE,37,2.0,-999.0,79,-99.99,,,-99.99,,2015-02-27 11:12:00,
2015-02-27 06:23:00,72.0,64.0,29.95,NE,37,3.0,-999.0,77,-99.99,,,-99.99,,2015-02-27 11:23:00,
2015-02-27 06:42:00,72.0,64.0,29.96,NE,37,2.0,-999.0,77,-99.99,,,-99.99,,2015-02-27 11:42:00,
2015-02-27 06:53:00,72.0,64.0,29.97,NE,37,1.0,-999.0,77,-99.99,,,-99.99,,2015-02-27 11:53:00,
2015-02-27 07:13:00,72.0,64.0,29.98,NE,38,2.0,-999.0,76,-99.99,,,-99.99,,2015-02-27 12:13:00,
2015-02-27 07:22:00,73.0,65.0,29.99,NE,38,3.0,-999.0,77,-99.99,,,-99.99,,2015-02-27 12:22:00,
2015-02-27 07:43:00,73.0,65.0,30.00,NE,38,3.0,-999.0,76,-99.99,,,-99.99,,2015-02-27 12:43:00,
2015-02-27 07:53:00,74.0,66.0,30.00,NE,38,2.0,-999.0,75,-99.99,,,-99.99,,2015-02-27 12:53:00,
2015-02-27 08:12:00,76.0,67.0,30.01,NE,38,3.0,-999.0,73,-99.99,,,-99.99,,2015-02-27 13:12:00,
2015-02-27 08:23:00,76.0,66.0,30.00,NE,38,2.0,-999.0,72,-99.99,,,-99.99,,2015-02-27 13:23:00,
2015-02-27 08:42:00,79.0,67.0,30.00,NE,38,1.0,-999.0,67,-99.99,,,-99.99,,2015-02-27 13:42:00,
2015-02-27 08:52:00,80.0,68.0,30.01,NE,38,1.0,-999.0,66,-99.99,,,-99.99,,2015-02-27 13:52:00,
2015-02-27 09:12:00,81.0,68.0,30.01,NE,39,2.0,-999.0,65,-99.99,,,-99.99,,2015-02-27 14:12:00,
2015-02-27 09:22:00,81.0,69.0,30.01,NE,38,2.0,-999.0,66,-99.99,,,-99.99,,2015-02-27 14:22:00,
2015-02-27 09:42:00,83.0,69.0,30.01,NE,38,1.0,-999.0,62,-99.99,,,-99.99,,2015-02-27 14:42:00,
2015-02-27 09:53:00,84.0,69.0,30.01,NE,38,1.0,-999.0,61,-99.99,,,-99.99,,2015-02-27 14:53:00,
2015-02-27 10:12:00,84.0,68.0,30.01,NE,38,1.0,-999.0,59,-99.99,,,-99.99,,2015-02-27 15:12:00,
2015-02-27 10:22:00,85.0,68.0,30.01,NE,38,1.0,-999.0,57,-99.99,,,-99.99,,2015-02-27 15:22:00,
2015-02-27 10:44:00,86.0,67.0,30.01,NE,38,1.0,-999.0,53,-99.99,,,-99.99,,2015-02-27 15:44:00,
2015-02-27 10:53:00,87.0,65.0,30.00,East,101,3.0,-999.0,48,-99.99,,,-99.99,,2015-02-27 15:53:00,
2015-02-27 11:13:00,88.0,65.0,30.00,ESE,123,6.0,-999.0,46,-99.99,,,-99.99,,2015-02-27 16:13:00,
2015-02-27 11:24:00,88.0,63.0,29.99,East,101,7.0,-999.0,44,-99.99,,,-99.99,,2015-02-27 16:24:00,
2015-02-27 11:43:00,88.0,65.0,29.98,ESE,122,6.0,-999.0,46,-99.99,,,-99.99,,2015-02-27 16:43:00,
2015-02-27 11:53:00,88.0,65.0,29.98,SSE,148,9.0,-999.0,46,-99.99,,,-99.99,,2015-02-27 16:53:00,
2015-02-27 12:12:00,89.0,65.0,29.97,NE,42,5.0,-999.0,46,-99.99,,,-99.99,,2015-02-27 17:12:00,
2015-02-27 12:22:00,88.0,65.0,29.97,East,80,7.0,-999.0,47,-99.99,,,-99.99,,2015-02-27 17:22:00,